Time;durP1;ratioP1;P1;durP2;ratioP2;P2;SDS_P1;SDS_P2;PMS_P1;PMS_P2;Temp;Humidity;BMP_temperature;BMP_pressure;BME280_temperature;BME280_humidity;BME280_pressure;Samples;Min_cycle;Max_cycle;Signal;HPM_P1;HPM_P2
2022/03/19 00:01:06;;;;;;;1.98;1.15;;;8.20;10.70;;;;;;5127113;27;34150;-76
2022/03/19 00:03:32;;;;;;;3.00;1.27;;;8.20;10.70;;;;;;5127602;27;34117;-76
2022/03/19 00:05:58;;;;;;;3.00;1.50;;;8.20;10.80;;;;;;5110449;27;35658;-76
2022/03/19 00:08:24;;;;;;;2.60;1.20;;;8.20;11.00;;;;;;5128088;27;34378;-75
2022/03/19 00:10:50;;;;;;;1.77;1.08;;;8.10;11.00;;;;;;5111012;27;34272;-76
2022/03/19 00:13:17;;;;;;;3.38;1.15;;;8.00;11.10;;;;;;5146790;27;34248;-76
2022/03/19 00:15:44;;;;;;;3.05;1.30;;;7.90;11.20;;;;;;5128159;27;36816;-76
2022/03/19 00:18:10;;;;;;;2.40;1.35;;;7.90;11.30;;;;;;5129521;27;34161;-75
2022/03/19 00:20:38;;;;;;;2.85;1.13;;;7.80;11.30;;;;;;5111449;27;34320;-76
2022/03/19 00:23:05;;;;;;;2.63;1.30;;;7.70;11.60;;;;;;5113505;27;34535;-76
2022/03/19 00:25:31;;;;;;;3.47;1.65;;;7.70;11.70;;;;;;5150155;27;35075;-76
2022/03/19 00:27:57;;;;;;;2.17;1.48;;;7.60;11.60;;;;;;5115297;27;34104;-76
2022/03/19 00:30:23;;;;;;;2.72;1.10;;;7.50;11.80;;;;;;5149635;27;34325;-75
2022/03/19 00:32:51;;;;;;;2.60;1.40;;;7.40;12.10;;;;;;5132078;27;34166;-76
2022/03/19 00:35:17;;;;;;;4.47;1.52;;;7.20;12.20;;;;;;5148945;27;34370;-76
2022/03/19 00:37:46;;;;;;;4.80;1.52;;;7.10;12.40;;;;;;5113010;27;34649;-76
2022/03/19 00:40:13;;;;;;;2.65;1.40;;;7.20;12.90;;;;;;5130733;27;34360;-76
2022/03/19 00:42:40;;;;;;;1.67;1.35;;;7.40;12.50;;;;;;5114448;27;35173;-76
2022/03/19 00:45:06;;;;;;;3.13;1.38;;;7.40;12.30;;;;;;5130961;27;35821;-76
2022/03/19 00:47:32;;;;;;;3.00;1.90;;;7.30;12.60;;;;;;5113580;27;34121;-76
2022/03/19 00:49:58;;;;;;;4.07;1.42;;;7.20;12.50;;;;;;5148277;27;34299;-76
2022/03/19 00:52:24;;;;;;;4.78;1.67;;;7.10;12.70;;;;;;5130166;27;34511;-75
2022/03/19 00:54:50;;;;;;;1.92;1.40;;;7.10;12.90;;;;;;5130354;27;36021;-76
2022/03/19 00:57:16;;;;;;;2.78;1.75;;;7.00;13.00;;;;;;5131839;27;34171;-76
2022/03/19 00:59:42;;;;;;;3.15;1.60;;;6.90;13.10;;;;;;5131049;27;34299;-75
2022/03/19 01:02:08;;;;;;;3.28;1.77;;;6.90;13.20;;;;;;5130981;27;34247;-76
2022/03/19 01:04:34;;;;;;;3.92;1.60;;;6.90;13.30;;;;;;5131226;27;36138;-75
2022/03/19 01:06:59;;;;;;;4.28;1.55;;;6.90;13.40;;;;;;5148973;27;34164;-76
2022/03/19 01:09:25;;;;;;;4.70;1.80;;;6.90;13.40;;;;;;5149422;27;34118;-76
2022/03/19 01:11:52;;;;;;;3.17;1.95;;;6.80;13.40;;;;;;5131155;27;34240;-76
2022/03/19 01:14:18;;;;;;;3.40;2.03;;;6.70;13.60;;;;;;5129827;27;35721;-76
2022/03/19 01:16:44;;;;;;;3.42;1.77;;;6.60;13.90;;;;;;5149688;27;34147;-76
2022/03/19 01:19:10;;;;;;;2.90;1.70;;;6.50;14.00;;;;;;5130857;27;34141;-76
2022/03/19 01:21:36;;;;;;;2.78;1.77;;;6.40;14.00;;;;;;5149237;27;34312;-76
2022/03/19 01:24:03;;;;;;;2.83;1.92;;;6.40;14.00;;;;;;5129975;27;35861;-76
2022/03/19 01:26:30;;;;;;;3.17;1.98;;;6.30;14.50;;;;;;5130326;27;34243;-76
2022/03/19 01:28:56;;;;;;;2.35;2.05;;;6.30;14.30;;;;;;5131113;27;34466;-75
2022/03/19 01:31:25;;;;;;;3.65;2.08;;;6.30;14.50;;;;;;5129995;27;34110;-76
2022/03/19 01:33:53;;;;;;;2.33;1.55;;;6.40;15.20;;;;;;5149100;27;34111;-76
2022/03/19 01:36:19;;;;;;;4.82;2.28;;;6.50;14.70;;;;;;5128886;27;34078;-76
2022/03/19 01:38:45;;;;;;;2.17;1.70;;;6.50;14.50;;;;;;5130176;27;34210;-76
2022/03/19 01:41:11;;;;;;;6.25;2.25;;;6.40;14.60;;;;;;5129224;27;34235;-76
2022/03/19 01:43:38;;;;;;;5.97;2.78;;;6.40;14.60;;;;;;5129342;27;35667;-76
2022/03/19 01:46:04;;;;;;;5.40;2.10;;;6.50;15.20;;;;;;5129326;27;34230;-76
2022/03/19 01:48:30;;;;;;;4.95;2.33;;;6.60;15.50;;;;;;5112830;27;34338;-76
2022/03/19 01:50:56;;;;;;;3.90;2.00;;;6.80;14.70;;;;;;5113262;27;34229;-75
2022/03/19 01:53:22;;;;;;;4.32;2.30;;;6.80;14.50;;;;;;5128287;27;35837;-76
2022/03/19 01:55:48;;;;;;;3.22;2.15;;;6.80;14.50;;;;;;5111905;27;34413;-76
2022/03/19 01:58:14;;;;;;;2.88;1.90;;;6.80;14.50;;;;;;5147079;27;34040;-76
2022/03/19 02:00:40;;;;;;;4.88;2.30;;;6.80;14.70;;;;;;5129756;27;34096;-76
2022/03/19 02:03:07;;;;;;;4.00;1.92;;;6.90;15.10;;;;;;5127906;27;35854;-76
2022/03/19 02:05:33;;;;;;;2.58;1.90;;;6.90;14.50;;;;;;5128206;27;34190;-76
2022/03/19 02:07:59;;;;;;;5.00;2.10;;;7.00;14.50;;;;;;5128616;27;34317;-76
2022/03/19 02:10:26;;;;;;;2.92;2.08;;;7.10;14.40;;;;;;5111750;27;34210;-75
2022/03/19 02:12:53;;;;;;;5.13;2.08;;;7.20;14.30;;;;;;5147409;27;35111;-76
2022/03/19 02:15:19;;;;;;;5.88;2.38;;;7.10;14.50;;;;;;5111527;27;34310;-76
2022/03/19 02:17:45;;;;;;;3.80;2.25;;;7.10;14.30;;;;;;5129409;27;34278;-76
2022/03/19 02:20:11;;;;;;;3.70;2.22;;;7.10;14.30;;;;;;5147214;27;34272;-76
2022/03/19 02:22:38;;;;;;;4.45;2.17;;;7.10;14.40;;;;;;5129411;27;36651;-76
2022/03/19 02:27:46;;;;;;;7.32;2.40;;;7.00;14.50;;;;;;5147433;27;34318;-76
2022/03/19 02:30:15;;;;;;;5.15;2.20;;;7.10;14.60;;;;;;5128422;27;34232;-76
2022/03/19 02:32:44;;;;;;;3.53;1.67;;;7.10;15.00;;;;;;5128445;27;36648;-76
2022/03/19 02:35:11;;;;;;;4.85;2.22;;;7.20;14.90;;;;;;5128380;27;34341;-76
2022/03/19 02:37:41;;;;;;;3.42;2.17;;;7.20;14.50;;;;;;5128570;27;33877;-76
2022/03/19 02:40:11;;;;;;;4.78;2.15;;;7.30;14.60;;;;;;5128188;27;34205;-76
2022/03/19 02:42:37;;;;;;;3.38;1.92;;;7.30;14.50;;;;;;5110783;27;35783;-77
2022/03/19 02:45:05;;;;;;;3.75;2.20;;;7.30;14.50;;;;;;5126828;27;34102;-76
2022/03/19 02:47:32;;;;;;;3.55;2.00;;;7.30;14.40;;;;;;5111224;27;34295;-76
2022/03/19 02:49:59;;;;;;;3.15;2.03;;;7.30;14.40;;;;;;5128662;27;34345;-76
2022/03/19 02:52:25;;;;;;;4.70;1.88;;;7.30;14.50;;;;;;5146501;27;34251;-76
2022/03/19 02:54:51;;;;;;;6.88;2.85;;;7.30;14.40;;;;;;5128245;27;34425;-76
2022/03/19 02:57:17;;;;;;;3.95;2.15;;;7.30;14.50;;;;;;5128777;27;34373;-76
2022/03/19 02:59:43;;;;;;;4.03;2.05;;;7.30;14.40;;;;;;5128585;27;34398;-77
2022/03/19 03:02:08;;;;;;;3.80;1.92;;;7.30;14.50;;;;;;5129099;27;35448;-76
2022/03/19 03:04:34;;;;;;;5.05;2.30;;;7.20;14.50;;;;;;5128039;27;34297;-76
2022/03/19 03:07:03;;;;;;;4.45;1.98;;;7.20;14.60;;;;;;5110872;27;34206;-76
2022/03/19 03:09:30;;;;;;;4.85;2.20;;;7.20;14.80;;;;;;5128962;27;34448;-78
2022/03/19 03:11:58;;;;;;;5.15;2.15;;;7.10;14.80;;;;;;5111022;27;36399;-76
2022/03/19 03:14:24;;;;;;;4.53;1.85;;;7.10;14.80;;;;;;5127548;27;34344;-76
2022/03/19 03:16:53;;;;;;;3.08;2.28;;;7.10;14.90;;;;;;5128510;27;34258;-76
2022/03/19 03:19:19;;;;;;;3.80;2.30;;;7.20;14.80;;;;;;5110999;27;34418;-76
2022/03/19 03:21:46;;;;;;;3.78;2.58;;;7.10;14.90;;;;;;5128932;27;35499;-76
2022/03/19 03:24:14;;;;;;;4.05;2.22;;;7.20;14.90;;;;;;5128004;27;34539;-76
2022/03/19 03:26:41;;;;;;;5.07;2.40;;;7.10;14.90;;;;;;5111198;27;34189;-76
2022/03/19 03:29:07;;;;;;;5.57;2.08;;;7.20;14.90;;;;;;5112087;27;34209;-76
2022/03/19 03:31:34;;;;;;;4.53;2.08;;;7.10;15.00;;;;;;5146446;27;34353;-76
2022/03/19 03:34:01;;;;;;;3.63;2.10;;;7.10;14.90;;;;;;5128317;27;34259;-77
2022/03/19 03:36:27;;;;;;;3.85;2.10;;;7.10;15.10;;;;;;5110471;27;34275;-75
2022/03/19 03:38:53;;;;;;;7.07;2.20;;;7.10;15.10;;;;;;5128876;27;34121;-76
2022/03/19 03:41:19;;;;;;;4.57;2.17;;;7.10;15.10;;;;;;5126919;27;35594;-77
2022/03/19 03:43:45;;;;;;;5.75;2.22;;;7.10;15.80;;;;;;5127853;27;34469;-76
2022/03/19 03:46:12;;;;;;;3.30;2.25;;;7.10;15.20;;;;;;5127966;27;34219;-76
2022/03/19 03:48:39;;;;;;;4.45;2.25;;;7.00;15.40;;;;;;5127972;27;34135;-76
2022/03/19 03:51:06;;;;;;;6.68;2.28;;;7.00;15.60;;;;;;5128172;27;35916;-76
2022/03/19 03:53:33;;;;;;;5.72;2.67;;;6.90;15.40;;;;;;5111051;27;34091;-76
2022/03/19 03:55:59;;;;;;;3.92;2.60;;;6.90;15.50;;;;;;5127603;27;33817;-76
2022/03/19 03:58:25;;;;;;;3.47;2.13;;;6.90;15.60;;;;;;5132642;27;34720;-76
2022/03/19 04:00:52;;;;;;;5.43;2.63;;;6.90;15.80;;;;;;5131686;27;36634;-75
2022/03/19 04:03:19;;;;;;;4.60;2.30;;;6.80;15.80;;;;;;5114389;27;34215;-75
2022/03/19 04:05:45;;;;;;;5.35;2.33;;;6.80;15.70;;;;;;5127517;27;34184;-76
2022/03/19 04:08:11;;;;;;;7.55;2.95;;;6.80;15.90;;;;;;5110486;27;34240;-76
2022/03/19 04:10:37;;;;;;;6.53;2.78;;;6.80;16.00;;;;;;5129097;27;34341;-76
2022/03/19 04:13:03;;;;;;;6.05;3.08;;;6.80;16.00;;;;;;5128790;27;34228;-76
2022/03/19 04:15:29;;;;;;;6.38;2.63;;;6.80;16.00;;;;;;5110666;27;34237;-76
2022/03/19 04:17:56;;;;;;;5.03;2.40;;;6.80;15.90;;;;;;5128007;27;34060;-76
2022/03/19 04:20:22;;;;;;;5.80;2.75;;;6.80;16.40;;;;;;5127250;27;35624;-75
2022/03/19 04:22:49;;;;;;;5.93;2.85;;;6.80;16.30;;;;;;5127238;27;34225;-76
2022/03/19 04:25:18;;;;;;;6.20;2.88;;;6.80;16.30;;;;;;5128237;27;34189;-76
2022/03/19 04:27:47;;;;;;;14.52;3.05;;;6.80;16.40;;;;;;5127539;27;34166;-76
2022/03/19 04:30:14;;;;;;;4.95;2.58;;;6.80;16.30;;;;;;5126364;27;36229;-75
2022/03/19 04:32:56;;;;;;;3.92;2.85;;;6.70;16.90;;;;;;5128568;27;34188;-76
2022/03/19 04:38:09;;;;;;;4.47;2.72;;;6.70;16.60;;;;;;5127947;27;34419;-76
2022/03/19 04:40:37;;;;;;;3.83;3.00;;;6.70;17.00;;;;;;5127047;27;35478;-76
2022/03/19 04:43:03;;;;;;;7.05;3.72;;;6.60;17.00;;;;;;5126380;27;33611;-76
2022/03/19 04:45:29;;;;;;;5.25;3.15;;;6.60;16.90;;;;;;5127194;27;34091;-76
2022/03/19 04:47:55;;;;;;;7.55;3.47;;;6.60;17.00;;;;;;5127465;27;34159;-75
2022/03/19 04:50:21;;;;;;;7.30;2.95;;;6.60;17.00;;;;;;5110509;27;36328;-76
2022/03/19 04:52:48;;;;;;;3.83;2.70;;;6.60;17.00;;;;;;5127356;27;34298;-76
2022/03/19 04:55:14;;;;;;;7.45;3.22;;;6.60;17.10;;;;;;5126596;27;34155;-77
2022/03/19 04:57:40;;;;;;;5.60;3.10;;;6.50;17.20;;;;;;5127434;27;34962;-76
2022/03/19 05:00:10;;;;;;;4.70;3.40;;;6.50;17.10;;;;;;5126563;27;35451;-77
2022/03/19 05:02:36;;;;;;;6.75;3.17;;;6.50;18.00;;;;;;5127534;27;34214;-76
2022/03/19 05:05:02;;;;;;;4.90;3.22;;;6.40;17.20;;;;;;5128258;27;34272;-76
2022/03/19 05:07:28;;;;;;;4.20;2.85;;;6.40;17.40;;;;;;5127128;27;34718;-76
2022/03/19 05:12:38;;;;;;;6.82;3.50;;;6.50;17.60;;;;;;5128558;27;34525;-76
2022/03/19 05:15:05;;;;;;;7.80;3.75;;;6.50;17.80;;;;;;5109855;27;34224;-76
2022/03/19 05:17:32;;;;;;;7.47;2.92;;;6.50;17.60;;;;;;5092372;27;34167;-75
2022/03/19 05:19:58;;;;;;;7.57;3.75;;;6.40;17.50;;;;;;5128142;27;34943;-75
2022/03/19 05:22:24;;;;;;;6.90;3.72;;;6.40;17.50;;;;;;5127219;27;34395;-76
2022/03/19 05:24:49;;;;;;;8.07;3.92;;;6.30;17.70;;;;;;5128260;27;34097;-76
2022/03/19 05:27:16;;;;;;;4.85;3.50;;;6.10;17.90;;;;;;5127021;27;34141;-76
2022/03/19 05:29:42;;;;;;;6.38;3.72;;;6.10;17.90;;;;;;5127649;27;34427;-76
2022/03/19 05:32:10;;;;;;;6.75;3.65;;;6.10;18.10;;;;;;5109418;27;34161;-76
2022/03/19 05:34:36;;;;;;;6.45;3.63;;;6.00;18.20;;;;;;5127373;27;34387;-76
2022/03/19 05:37:04;;;;;;;8.90;3.78;;;5.90;18.30;;;;;;5125941;27;34547;-76
2022/03/19 05:39:31;;;;;;;9.88;3.58;;;5.80;18.70;;;;;;5091825;27;36365;-76
2022/03/19 05:41:57;;;;;;;6.68;3.60;;;5.80;18.70;;;;;;5127392;27;34222;-76
2022/03/19 05:44:24;;;;;;;6.35;4.18;;;5.80;18.70;;;;;;5127997;27;34173;-76
2022/03/19 05:46:50;;;;;;;6.53;3.75;;;5.70;18.70;;;;;;5109497;27;34241;-76
2022/03/19 05:49:16;;;;;;;6.43;3.50;;;5.70;19.00;;;;;;5127416;27;35638;-76
2022/03/19 05:51:43;;;;;;;6.50;3.75;;;5.70;19.40;;;;;;5129004;27;33715;-76
2022/03/19 05:54:10;;;;;;;7.40;3.90;;;5.80;19.10;;;;;;5126861;27;34167;-76
2022/03/19 05:56:36;;;;;;;6.88;3.55;;;5.80;19.20;;;;;;5126488;27;34078;-76
2022/03/19 05:59:04;;;;;;;8.60;3.33;;;5.90;19.80;;;;;;5127477;27;35171;-76
2022/03/19 06:01:30;;;;;;;8.30;4.03;;;6.00;19.90;;;;;;5127108;27;34151;-76
2022/03/19 06:03:57;;;;;;;6.45;3.53;;;6.00;19.90;;;;;;5109162;27;34251;-76
2022/03/19 06:06:23;;;;;;;7.13;3.78;;;6.20;19.30;;;;;;5092509;27;34525;-76
2022/03/19 06:08:50;;;;;;;8.20;3.97;;;6.20;19.20;;;;;;5127058;27;34242;-76
2022/03/19 06:11:16;;;;;;;6.30;3.40;;;6.20;19.10;;;;;;5125907;27;34216;-76
2022/03/19 06:13:43;;;;;;;8.93;3.63;;;6.30;19.10;;;;;;5126511;27;34319;-76
2022/03/19 06:16:09;;;;;;;7.95;4.05;;;6.30;19.10;;;;;;5125842;27;34536;-75
2022/03/19 06:18:35;;;;;;;6.95;3.50;;;6.30;19.40;;;;;;5124806;27;36616;-76
2022/03/19 06:21:02;;;;;;;7.32;3.70;;;6.40;19.10;;;;;;5126795;27;34338;-75
2022/03/19 06:23:28;;;;;;;7.07;3.67;;;6.60;19.30;;;;;;5126143;27;33716;-76
2022/03/19 06:25:54;;;;;;;10.40;3.58;;;6.70;19.30;;;;;;5125788;27;34084;-76
2022/03/19 06:28:20;;;;;;;9.80;3.42;;;6.80;18.90;;;;;;5125821;27;35774;-76
2022/03/19 06:30:48;;;;;;;5.43;3.25;;;7.00;19.10;;;;;;5127595;27;34230;-76
2022/03/19 06:33:14;;;;;;;7.20;3.45;;;7.20;18.50;;;;;;5125857;27;34201;-76
2022/03/19 06:38:25;;;;;;;6.18;3.42;;;7.70;18.00;;;;;;5110432;27;34368;-76
2022/03/19 06:40:51;;;;;;;6.32;3.15;;;7.90;17.70;;;;;;5107892;27;34179;-76
2022/03/19 06:43:17;;;;;;;10.50;3.63;;;7.90;17.50;;;;;;5124844;27;34408;-76
2022/03/19 06:45:43;;;;;;;7.05;3.35;;;8.00;17.80;;;;;;5108010;27;34013;-76
2022/03/19 06:48:08;;;;;;;6.82;3.58;;;8.10;17.40;;;;;;5124497;27;35647;-77
2022/03/19 06:50:34;;;;;;;6.25;3.35;;;8.20;17.20;;;;;;5124372;27;34335;-76
2022/03/19 06:53:03;;;;;;;9.07;3.58;;;8.40;17.10;;;;;;5125246;27;34223;-76
2022/03/19 06:55:29;;;;;;;7.82;3.60;;;8.60;17.20;;;;;;5107632;27;34227;-76
2022/03/19 06:57:56;;;;;;;6.57;3.58;;;8.80;17.30;;;;;;5124198;27;35728;-76
2022/03/19 07:00:23;;;;;;;6.60;3.55;;;8.90;16.70;;;;;;5125847;27;34291;-77
2022/03/19 07:02:51;;;;;;;9.48;3.63;;;9.10;16.50;;;;;;5125306;27;34761;-76
2022/03/19 07:05:22;;;;;;;9.57;3.33;;;9.40;16.30;;;;;;5108583;27;34230;-76
2022/03/19 07:07:49;;;;;;;9.02;3.47;;;9.60;15.80;;;;;;5127575;27;35933;-76
2022/03/19 07:10:15;;;;;;;7.57;3.13;;;9.70;15.50;;;;;;5146922;27;34125;-77
2022/03/19 07:12:43;;;;;;;10.43;3.90;;;9.90;15.50;;;;;;5111742;27;34302;-76
2022/03/19 07:15:13;;;;;;;9.20;3.17;;;9.90;15.40;;;;;;5127111;27;34275;-76
2022/03/19 07:17:39;;;;;;;5.55;3.15;;;10.10;14.80;;;;;;5146999;27;34216;-76
2022/03/19 07:20:06;;;;;;;6.68;3.25;;;10.10;15.00;;;;;;5129687;27;34165;-76
2022/03/19 07:22:49;;;;;;;7.38;3.05;;;10.20;14.80;;;;;;5095191;27;34072;-77
2022/03/19 07:25:16;;;;;;;4.13;2.45;;;10.20;14.30;;;;;;5148464;27;34172;-76
2022/03/19 07:27:42;;;;;;;5.93;2.78;;;10.20;15.00;;;;;;5128696;27;36645;-76
2022/03/19 07:30:08;;;;;;;8.38;3.75;;;10.30;14.60;;;;;;5128648;27;34220;-76
2022/03/19 07:32:34;;;;;;;6.13;3.22;;;10.30;15.00;;;;;;5127151;27;34445;-76
2022/03/19 07:35:00;;;;;;;5.20;3.22;;;10.30;14.80;;;;;;5128790;27;34614;-76
2022/03/19 07:37:28;;;;;;;7.07;3.13;;;10.30;14.70;;;;;;5129344;27;35914;-76
2022/03/19 07:39:56;;;;;;;10.20;3.05;;;10.50;14.70;;;;;;5130282;27;34329;-76
2022/03/19 07:42:23;;;;;;;4.70;2.95;;;10.60;14.90;;;;;;5111438;27;34015;-76
2022/03/19 07:44:50;;;;;;;9.40;2.92;;;10.70;14.90;;;;;;5128793;27;34175;-77
2022/03/19 07:47:17;;;;;;;5.43;2.85;;;10.80;14.70;;;;;;5128398;27;35910;-77
2022/03/19 07:49:43;;;;;;;9.02;3.40;;;10.80;14.60;;;;;;5111949;27;34135;-76
2022/03/19 07:52:10;;;;;;;4.32;2.85;;;10.90;14.70;;;;;;5127526;27;34270;-76
2022/03/19 07:54:37;;;;;;;6.40;3.45;;;11.00;14.40;;;;;;5111015;27;34166;-76
2022/03/19 07:57:03;;;;;;;9.93;3.15;;;11.10;14.40;;;;;;5111109;27;36093;-77
2022/03/19 07:59:30;;;;;;;11.10;3.50;;;11.20;14.40;;;;;;5129062;27;34216;-76
2022/03/19 08:01:56;;;;;;;7.25;2.95;;;11.20;14.30;;;;;;5128629;27;34110;-76
2022/03/19 08:04:22;;;;;;;6.40;2.95;;;11.20;14.50;;;;;;5128905;27;34647;-77
2022/03/19 08:06:53;;;;;;;5.05;2.72;;;11.30;14.30;;;;;;5145424;27;34244;-77
2022/03/19 08:09:20;;;;;;;8.73;2.90;;;11.40;13.80;;;;;;5125535;27;34276;-76
2022/03/19 08:11:49;;;;;;;6.50;2.85;;;11.40;13.40;;;;;;5101000;27;34236;-76
2022/03/19 08:14:16;;;;;;;11.88;3.00;;;11.30;13.90;;;;;;5106636;27;34507;-76
2022/03/19 08:16:43;;;;;;;5.78;2.85;;;11.40;14.00;;;;;;5106388;27;35715;-76
2022/03/19 08:19:13;;;;;;;7.05;2.70;;;11.40;13.90;;;;;;5089907;27;34493;-76
2022/03/19 08:21:43;;;;;;;7.13;2.60;;;11.40;14.10;;;;;;5095601;27;34425;-76
2022/03/19 08:24:10;;;;;;;5.28;2.45;;;11.50;14.00;;;;;;5087176;27;34301;-76
2022/03/19 08:26:37;;;;;;;6.88;2.50;;;11.70;13.80;;;;;;5106997;27;35596;-76
2022/03/19 08:29:04;;;;;;;5.88;2.60;;;11.90;14.00;;;;;;5090614;27;34156;-76
2022/03/19 08:31:32;;;;;;;5.22;2.25;;;12.10;13.80;;;;;;5125962;27;34204;-77
2022/03/19 08:33:58;;;;;;;3.83;2.30;;;12.20;13.50;;;;;;5142800;27;34256;-76
2022/03/19 08:36:24;;;;;;;8.23;2.53;;;12.40;13.40;;;;;;5088703;27;35751;-77
2022/03/19 08:41:32;;;;;;;6.47;2.53;;;12.60;13.10;;;;;;5108430;27;34446;-76
2022/03/19 08:46:43;;;;;;;7.30;2.22;;;12.70;12.80;;;;;;5128026;27;34588;-76
2022/03/19 08:49:09;;;;;;;5.75;2.55;;;12.70;12.30;;;;;;5143773;27;34253;-76
2022/03/19 08:51:42;;;;;;;6.35;2.35;;;12.70;12.80;;;;;;5093013;27;34202;-76
2022/03/19 08:54:15;;;;;;;7.82;2.90;;;12.70;12.90;;;;;;5113140;27;34240;-77
2022/03/19 08:56:42;;;;;;;5.20;2.50;;;12.80;12.40;;;;;;5127300;27;36541;-76
2022/03/19 08:59:09;;;;;;;6.18;2.90;;;12.90;12.20;;;;;;5128970;27;34307;-77
2022/03/19 09:01:37;;;;;;;5.85;2.78;;;13.10;12.70;;;;;;5110894;27;34337;-76
2022/03/19 09:04:03;;;;;;;6.55;3.05;;;13.20;11.70;;;;;;5111796;27;34177;-76
2022/03/19 09:06:29;;;;;;;6.82;2.95;;;13.10;11.50;;;;;;5092991;27;36179;-76
2022/03/19 09:08:55;;;;;;;5.07;2.70;;;13.10;11.90;;;;;;5128399;27;34293;-77
2022/03/19 09:11:23;;;;;;;7.38;2.90;;;13.10;12.10;;;;;;5128539;27;34442;-76
2022/03/19 09:13:51;;;;;;;6.95;2.88;;;13.20;12.00;;;;;;5093998;27;34198;-77
2022/03/19 09:16:19;;;;;;;4.53;2.28;;;13.50;11.90;;;;;;5110718;27;34488;-76
2022/03/19 09:18:45;;;;;;;7.70;2.72;;;13.60;11.40;;;;;;5109225;27;34220;-77
2022/03/19 09:21:11;;;;;;;6.47;2.90;;;13.70;11.60;;;;;;5128390;27;34252;-76
2022/03/19 09:23:38;;;;;;;12.05;3.40;;;13.80;11.30;;;;;;5144531;27;34071;-77
2022/03/19 09:26:04;;;;;;;8.18;3.10;;;13.90;11.40;;;;;;5127442;27;34263;-75
2022/03/19 09:28:30;;;;;;;4.85;2.53;;;13.90;11.10;;;;;;5127458;27;34339;-77
2022/03/19 09:30:56;;;;;;;6.25;2.53;;;14.00;11.20;;;;;;5092794;27;34167;-77
2022/03/19 09:33:22;;;;;;;8.23;3.25;;;14.00;11.10;;;;;;5110438;27;34539;-76
2022/03/19 09:35:48;;;;;;;6.35;2.60;;;14.00;10.20;;;;;;5091857;27;35846;-77
2022/03/19 09:38:15;;;;;;;4.00;2.38;;;14.10;10.20;;;;;;5091412;27;34381;-76
2022/03/19 09:40:42;;;;;;;4.88;2.05;;;14.30;10.60;;;;;;5109042;27;34546;-77
2022/03/19 09:43:08;;;;;;;5.53;2.53;;;14.10;9.40;;;;;;5127061;27;34172;-76
2022/03/19 09:45:35;;;;;;;6.80;2.80;;;14.20;10.60;;;;;;5091803;27;35662;-76
2022/03/19 09:48:02;;;;;;;5.30;2.35;;;14.10;9.50;;;;;;5108946;27;34120;-75
2022/03/19 09:50:28;;;;;;;7.93;2.25;;;14.20;9.90;;;;;;5109879;27;34371;-76
2022/03/19 09:52:57;;;;;;;6.65;2.72;;;14.20;10.10;;;;;;5093261;27;34128;-75
2022/03/19 09:55:26;;;;;;;4.13;2.53;;;14.20;9.70;;;;;;5108141;27;36225;-77
2022/03/19 09:57:53;;;;;;;3.47;2.00;;;14.20;9.30;;;;;;5108134;27;34264;-75
2022/03/19 10:00:22;;;;;;;6.50;2.42;;;14.10;7.90;;;;;;5108847;27;34572;-76
2022/03/19 10:02:56;;;;;;;4.90;2.42;;;14.20;10.10;;;;;;5127676;27;34328;-76
2022/03/19 10:10:46;;;;;;;5.07;2.15;;;14.60;10.00;;;;;;5109703;27;34075;-76
2022/03/19 10:13:12;;;;;;;8.93;2.65;;;14.50;9.60;;;;;;5108937;27;34396;-76
2022/03/19 10:15:41;;;;;;;5.13;2.35;;;14.60;9.70;;;;;;5107581;27;35503;-76
2022/03/19 10:18:09;;;;;;;5.57;2.97;;;14.80;8.60;;;;;;5108339;27;34211;-75
2022/03/19 10:20:35;;;;;;;5.90;2.90;;;14.90;8.70;;;;;;5108447;27;34130;-75
2022/03/19 10:23:01;;;;;;;9.48;2.95;;;15.10;10.00;;;;;;5108735;27;34146;-77
2022/03/19 10:25:28;;;;;;;7.53;2.88;;;15.20;8.60;;;;;;5108987;27;35790;-74
2022/03/19 10:28:00;;;;;;;9.07;2.95;;;15.10;8.20;;;;;;5108866;27;34087;-76
2022/03/19 10:30:34;;;;;;;4.63;2.97;;;15.20;7.30;;;;;;5091617;27;34298;-76
2022/03/19 10:33:00;;;;;;;5.13;2.70;;;15.00;9.10;;;;;;5092796;27;34072;-76
2022/03/19 10:35:29;;;;;;;6.22;3.35;;;15.30;9.80;;;;;;5108022;27;36034;-76
2022/03/19 10:37:56;;;;;;;5.50;3.58;;;15.40;8.60;;;;;;5108017;27;34175;-76
2022/03/19 10:40:22;;;;;;;7.50;3.20;;;15.70;9.70;;;;;;5091944;27;34271;-77
2022/03/19 10:42:56;;;;;;;6.35;3.47;;;15.70;9.00;;;;;;5109393;27;34083;-76
2022/03/19 10:45:22;;;;;;;7.28;3.08;;;15.60;8.80;;;;;;5091779;27;35628;-77
2022/03/19 10:47:49;;;;;;;6.97;3.13;;;15.80;9.30;;;;;;5127465;27;34060;-77
2022/03/19 10:50:21;;;;;;;4.20;2.72;;;16.00;9.30;;;;;;5127021;27;34264;-75
2022/03/19 10:52:49;;;;;;;4.63;2.70;;;16.00;6.10;;;;;;5108610;27;34166;-76
2022/03/19 10:55:15;;;;;;;8.00;2.60;;;15.90;9.30;;;;;;5090644;27;36504;-76
2022/03/19 10:57:42;;;;;;;4.50;3.35;;;15.80;8.80;;;;;;5108042;27;34146;-76
2022/03/19 11:00:09;;;;;;;4.20;2.50;;;15.90;9.10;;;;;;5107463;27;34393;-77
2022/03/19 11:02:38;;;;;;;5.38;2.70;;;15.90;9.00;;;;;;5107927;27;34019;-77
2022/03/19 11:05:07;;;;;;;5.82;2.90;;;16.00;8.60;;;;;;5107367;27;34255;-77
2022/03/19 11:07:34;;;;;;;3.75;2.53;;;16.10;8.80;;;;;;5086135;28;34440;-76
2022/03/19 11:10:04;;;;;;;5.10;2.20;;;16.00;9.00;;;;;;5103422;27;34409;-76
2022/03/19 11:12:33;;;;;;;5.00;2.28;;;16.10;6.80;;;;;;5087979;28;34108;-75
2022/03/19 11:15:03;;;;;;;3.55;2.15;;;16.10;7.90;;;;;;5104275;27;36695;-77
2022/03/19 11:17:32;;;;;;;3.80;2.20;;;16.20;8.30;;;;;;5087226;28;34192;-76
2022/03/19 11:20:09;;;;;;;5.70;2.15;;;16.20;7.60;;;;;;5106925;27;34123;-77
2022/03/19 11:22:40;;;;;;;3.20;2.00;;;16.20;5.30;;;;;;5103547;27;34274;-75
2022/03/19 11:25:17;;;;;;;3.63;1.88;;;16.10;7.00;;;;;;5086348;28;35543;-77
2022/03/19 11:27:46;;;;;;;4.10;2.22;;;16.10;5.80;;;;;;5083910;28;34288;-76
2022/03/19 11:30:21;;;;;;;3.88;2.30;;;16.20;7.90;;;;;;5085202;28;34255;-76
2022/03/19 11:33:05;;;;;;;3.50;1.80;;;16.10;6.10;;;;;;5101547;28;34008;-77
2022/03/19 11:35:33;;;;;;;4.50;2.35;;;16.20;7.00;;;;;;5099962;28;35779;-76
2022/03/19 11:38:05;;;;;;;5.07;2.38;;;16.30;8.50;;;;;;5084172;28;34312;-77
2022/03/19 11:40:35;;;;;;;3.83;1.83;;;16.40;7.70;;;;;;5100076;27;34221;-77
2022/03/19 11:43:07;;;;;;;4.22;2.03;;;16.30;6.20;;;;;;5083004;28;34392;-76
2022/03/19 11:46:02;;;;;;;3.30;1.90;;;16.30;7.30;;;;;;5083887;28;34330;-77
2022/03/19 11:48:39;;;;;;;3.55;2.20;;;16.40;7.30;;;;;;5083981;28;34150;-77
2022/03/19 11:51:31;;;;;;;3.20;1.70;;;16.40;6.30;;;;;;5083006;28;34320;-76
2022/03/19 11:54:12;;;;;;;3.67;1.85;;;16.50;4.50;;;;;;5084307;28;34060;-76
2022/03/19 11:57:02;;;;;;;4.10;1.88;;;16.50;4.30;;;;;;5100514;28;36279;-77
2022/03/19 11:59:44;;;;;;;4.78;2.00;;;16.50;2.80;;;;;;5084473;28;34060;-76
2022/03/19 12:02:12;;;;;;;2.97;1.90;;;16.60;4.90;;;;;;5101003;28;34214;-76
2022/03/19 12:04:48;;;;;;;2.60;1.95;;;16.70;7.10;;;;;;5101395;28;34134;-77
2022/03/19 12:07:41;;;;;;;3.97;1.90;;;16.70;4.70;;;;;;5100072;28;35684;-77
2022/03/19 12:10:13;;;;;;;4.68;1.70;;;16.80;4.80;;;;;;5084103;28;34077;-75
2022/03/19 12:12:41;;;;;;;3.88;1.70;;;16.80;6.40;;;;;;5084021;28;34160;-77
2022/03/19 12:15:42;;;;;;;3.20;1.52;;;16.80;7.10;;;;;;5100855;28;34147;-77
2022/03/19 12:18:32;;;;;;;3.08;1.90;;;16.90;4.30;;;;;;5087667;28;36700;-76
2022/03/19 12:21:03;;;;;;;2.55;1.45;;;16.80;2.60;;;;;;5090816;28;34253;-76
2022/03/19 12:23:41;;;;;;;3.85;1.50;;;16.70;3.40;;;;;;5103885;27;34277;-76
2022/03/19 12:26:10;;;;;;;3.03;1.70;;;16.80;3.20;;;;;;5087579;28;34021;-76
2022/03/19 12:28:36;;;;;;;1.88;1.55;;;16.80;6.20;;;;;;5087382;28;34298;-77
2022/03/19 12:31:10;;;;;;;3.25;1.75;;;16.80;6.50;;;;;;5103792;27;34236;-76
2022/03/19 12:33:37;;;;;;;2.28;1.40;;;16.80;6.40;;;;;;5086330;28;34320;-77
2022/03/19 12:36:16;;;;;;;2.00;1.58;;;16.80;6.50;;;;;;5104699;27;34321;-76
2022/03/19 12:38:42;;;;;;;1.90;1.67;;;16.70;3.60;;;;;;5087557;28;34162;-76
2022/03/19 12:41:24;;;;;;;1.83;1.60;;;16.80;6.10;;;;;;5092389;27;34337;-77
2022/03/19 12:43:51;;;;;;;5.72;1.70;;;16.90;3.00;;;;;;5108123;28;34220;-77
2022/03/19 12:46:34;;;;;;;5.07;1.67;;;16.90;4.90;;;;;;5088933;28;34124;-76
2022/03/19 12:49:05;;;;;;;3.30;1.85;;;16.90;3.30;;;;;;5106218;27;34248;-76
2022/03/19 12:51:31;;;;;;;3.45;1.67;;;16.90;4.60;;;;;;5106460;27;34324;-76
2022/03/19 12:53:58;;;;;;;2.22;1.52;;;16.90;5.90;;;;;;5106228;27;34213;-76
2022/03/19 12:56:27;;;;;;;4.05;1.98;;;16.90;6.00;;;;;;5106362;27;34244;-76
2022/03/19 12:58:57;;;;;;;3.05;1.83;;;17.00;4.50;;;;;;5106526;27;34138;-76
2022/03/19 13:01:25;;;;;;;2.45;1.90;;;17.10;4.90;;;;;;5106574;27;34112;-77
2022/03/19 13:03:55;;;;;;;2.60;1.63;;;16.90;4.50;;;;;;5072358;27;34146;-76
2022/03/19 13:06:32;;;;;;;1.95;1.73;;;17.00;4.50;;;;;;5115467;27;34150;-77
2022/03/19 13:08:58;;;;;;;6.07;1.90;;;17.00;2.20;;;;;;5126657;27;36320;-76
2022/03/19 13:11:24;;;;;;;2.67;1.60;;;16.90;3.70;;;;;;5126377;27;34209;-76
2022/03/19 13:13:51;;;;;;;2.55;1.80;;;17.00;5.10;;;;;;5127705;27;34104;-76
2022/03/19 13:16:27;;;;;;;2.80;1.83;;;17.00;4.90;;;;;;5128279;27;34318;-76
2022/03/19 13:19:00;;;;;;;3.47;1.67;;;17.00;2.50;;;;;;5125894;27;35846;-76
2022/03/19 13:21:27;;;;;;;2.17;1.25;;;17.10;2.50;;;;;;5125742;27;34253;-76